Terminal Aerodrome Forecast
Issued by NWS Albany, NY

Home | Current Version | Previous Version | Text Only | Print | Product List | Glossary On
Versions: 1 2 3 4 5 6 7 8 9 10 11 12 13 14 15 16 17 18 19 20 21
628
FTUS41 KALY 291742
TAFGFL
TAF
KGFL 291742Z 2918/3018 01005KT P6SM SKC
     FM292100 02007KT P6SM SCT250
     FM300400 36004KT P6SM BKN250
     FM300800 00000KT 3/4SM BR SCT250
     FM301500 36003KT P6SM SCT100 BKN200=

USA.gov is the U.S. government's official web portal to all federal, state and local government web resources and services.